sensor_id;sensor_type;location;lat;lon;timestamp;P1;durP1;ratioP1;P2;durP2;ratioP2
13731;SDS011;6937;56.096;12.664;2022-07-23T00:01:27;5.07;;;3.17;;
13731;SDS011;6937;56.096;12.664;2022-07-23T00:03:53;6.60;;;3.72;;
13731;SDS011;6937;56.096;12.664;2022-07-23T00:06:20;4.28;;;3.35;;
13731;SDS011;6937;56.096;12.664;2022-07-23T00:08:46;4.38;;;3.03;;
13731;SDS011;6937;56.096;12.664;2022-07-23T00:11:11;4.60;;;3.22;;
13731;SDS011;6937;56.096;12.664;2022-07-23T00:13:37;6.28;;;3.47;;
13731;SDS011;6937;56.096;12.664;2022-07-23T00:16:02;5.35;;;3.20;;
13731;SDS011;6937;56.096;12.664;2022-07-23T00:18:28;5.78;;;3.15;;
13731;SDS011;6937;56.096;12.664;2022-07-23T00:20:54;4.43;;;2.88;;
13731;SDS011;6937;56.096;12.664;2022-07-23T00:23:19;7.10;;;3.33;;
13731;SDS011;6937;56.096;12.664;2022-07-23T00:25:44;5.65;;;3.10;;
13731;SDS011;6937;56.096;12.664;2022-07-23T00:28:10;6.18;;;3.03;;
13731;SDS011;6937;56.096;12.664;2022-07-23T00:30:36;5.68;;;3.30;;
13731;SDS011;6937;56.096;12.664;2022-07-23T00:33:02;3.42;;;2.70;;
13731;SDS011;6937;56.096;12.664;2022-07-23T00:35:30;3.78;;;2.80;;
13731;SDS011;6937;56.096;12.664;2022-07-23T00:37:59;5.60;;;3.30;;
13731;SDS011;6937;56.096;12.664;2022-07-23T00:40:25;3.50;;;2.70;;
13731;SDS011;6937;56.096;12.664;2022-07-23T00:42:51;4.32;;;2.53;;
13731;SDS011;6937;56.096;12.664;2022-07-23T00:45:17;3.42;;;2.60;;
13731;SDS011;6937;56.096;12.664;2022-07-23T00:47:43;5.22;;;2.78;;
13731;SDS011;6937;56.096;12.664;2022-07-23T00:50:09;4.07;;;2.58;;
13731;SDS011;6937;56.096;12.664;2022-07-23T00:52:35;5.57;;;2.50;;
13731;SDS011;6937;56.096;12.664;2022-07-23T00:55:03;3.83;;;2.45;;
13731;SDS011;6937;56.096;12.664;2022-07-23T00:57:29;3.40;;;2.70;;
13731;SDS011;6937;56.096;12.664;2022-07-23T00:59:55;3.50;;;2.15;;
13731;SDS011;6937;56.096;12.664;2022-07-23T01:02:21;3.90;;;2.47;;
13731;SDS011;6937;56.096;12.664;2022-07-23T01:04:46;4.32;;;2.70;;
13731;SDS011;6937;56.096;12.664;2022-07-23T01:07:12;3.58;;;2.33;;
13731;SDS011;6937;56.096;12.664;2022-07-23T01:09:37;3.47;;;2.20;;
13731;SDS011;6937;56.096;12.664;2022-07-23T01:12:03;4.60;;;2.40;;
13731;SDS011;6937;56.096;12.664;2022-07-23T01:14:30;3.65;;;2.40;;
13731;SDS011;6937;56.096;12.664;2022-07-23T01:16:55;3.80;;;2.25;;
13731;SDS011;6937;56.096;12.664;2022-07-23T01:19:21;5.90;;;2.63;;
13731;SDS011;6937;56.096;12.664;2022-07-23T01:21:47;5.25;;;2.55;;
13731;SDS011;6937;56.096;12.664;2022-07-23T01:24:13;4.22;;;2.85;;
13731;SDS011;6937;56.096;12.664;2022-07-23T01:26:41;3.58;;;2.45;;
13731;SDS011;6937;56.096;12.664;2022-07-23T01:29:09;2.70;;;2.20;;
13731;SDS011;6937;56.096;12.664;2022-07-23T01:31:34;3.72;;;2.20;;
13731;SDS011;6937;56.096;12.664;2022-07-23T01:34:00;3.47;;;2.28;;
13731;SDS011;6937;56.096;12.664;2022-07-23T01:36:26;3.70;;;2.33;;
13731;SDS011;6937;56.096;12.664;2022-07-23T01:38:52;4.03;;;2.40;;
13731;SDS011;6937;56.096;12.664;2022-07-23T01:41:17;3.38;;;2.42;;
13731;SDS011;6937;56.096;12.664;2022-07-23T01:43:43;5.55;;;2.50;;
13731;SDS011;6937;56.096;12.664;2022-07-23T01:46:08;4.80;;;2.85;;
13731;SDS011;6937;56.096;12.664;2022-07-23T01:48:34;3.97;;;2.90;;
13731;SDS011;6937;56.096;12.664;2022-07-23T01:50:59;4.63;;;2.75;;
13731;SDS011;6937;56.096;12.664;2022-07-23T01:53:25;5.88;;;3.17;;
13731;SDS011;6937;56.096;12.664;2022-07-23T01:55:50;3.33;;;2.50;;
13731;SDS011;6937;56.096;12.664;2022-07-23T01:58:16;5.07;;;2.70;;
13731;SDS011;6937;56.096;12.664;2022-07-23T02:00:41;5.43;;;2.85;;
13731;SDS011;6937;56.096;12.664;2022-07-23T02:03:06;5.80;;;2.83;;
13731;SDS011;6937;56.096;12.664;2022-07-23T02:05:32;5.57;;;2.85;;
13731;SDS011;6937;56.096;12.664;2022-07-23T02:07:58;5.35;;;3.22;;
13731;SDS011;6937;56.096;12.664;2022-07-23T02:10:24;4.78;;;2.90;;
13731;SDS011;6937;56.096;12.664;2022-07-23T02:12:50;5.43;;;3.00;;
13731;SDS011;6937;56.096;12.664;2022-07-23T02:15:16;5.93;;;3.33;;
13731;SDS011;6937;56.096;12.664;2022-07-23T02:17:41;7.30;;;3.65;;
13731;SDS011;6937;56.096;12.664;2022-07-23T02:20:07;4.60;;;3.28;;
13731;SDS011;6937;56.096;12.664;2022-07-23T02:22:33;6.15;;;3.20;;
13731;SDS011;6937;56.096;12.664;2022-07-23T02:24:59;8.57;;;3.80;;
13731;SDS011;6937;56.096;12.664;2022-07-23T02:27:24;7.55;;;3.22;;
13731;SDS011;6937;56.096;12.664;2022-07-23T02:29:49;4.72;;;3.10;;
13731;SDS011;6937;56.096;12.664;2022-07-23T02:32:15;5.32;;;3.20;;
13731;SDS011;6937;56.096;12.664;2022-07-23T02:34:41;4.90;;;3.25;;
13731;SDS011;6937;56.096;12.664;2022-07-23T02:37:06;8.13;;;3.78;;
13731;SDS011;6937;56.096;12.664;2022-07-23T02:39:34;6.85;;;3.67;;
13731;SDS011;6937;56.096;12.664;2022-07-23T02:42:00;4.88;;;3.10;;
13731;SDS011;6937;56.096;12.664;2022-07-23T02:44:26;6.75;;;3.65;;
13731;SDS011;6937;56.096;12.664;2022-07-23T02:46:51;6.07;;;3.45;;
13731;SDS011;6937;56.096;12.664;2022-07-23T02:49:16;6.30;;;3.38;;
13731;SDS011;6937;56.096;12.664;2022-07-23T02:51:42;6.40;;;3.80;;
13731;SDS011;6937;56.096;12.664;2022-07-23T02:54:07;4.68;;;3.40;;
13731;SDS011;6937;56.096;12.664;2022-07-23T02:56:33;5.45;;;3.30;;
13731;SDS011;6937;56.096;12.664;2022-07-23T02:58:58;6.13;;;3.33;;
13731;SDS011;6937;56.096;12.664;2022-07-23T03:01:23;5.82;;;3.60;;
13731;SDS011;6937;56.096;12.664;2022-07-23T03:03:49;3.75;;;3.00;;
13731;SDS011;6937;56.096;12.664;2022-07-23T03:06:14;8.25;;;3.80;;
13731;SDS011;6937;56.096;12.664;2022-07-23T03:08:40;6.43;;;3.75;;
13731;SDS011;6937;56.096;12.664;2022-07-23T03:11:05;8.32;;;3.50;;
13731;SDS011;6937;56.096;12.664;2022-07-23T03:13:36;7.03;;;3.60;;
13731;SDS011;6937;56.096;12.664;2022-07-23T03:16:04;5.80;;;3.22;;
13731;SDS011;6937;56.096;12.664;2022-07-23T03:18:30;5.75;;;3.40;;
13731;SDS011;6937;56.096;12.664;2022-07-23T03:20:55;5.78;;;3.53;;
13731;SDS011;6937;56.096;12.664;2022-07-23T03:23:21;6.07;;;3.05;;
13731;SDS011;6937;56.096;12.664;2022-07-23T03:25:46;7.65;;;3.13;;
13731;SDS011;6937;56.096;12.664;2022-07-23T03:28:13;5.18;;;3.00;;
13731;SDS011;6937;56.096;12.664;2022-07-23T03:30:43;5.43;;;2.72;;
13731;SDS011;6937;56.096;12.664;2022-07-23T03:33:15;6.13;;;3.10;;
13731;SDS011;6937;56.096;12.664;2022-07-23T03:35:42;4.93;;;3.08;;
13731;SDS011;6937;56.096;12.664;2022-07-23T03:38:11;8.18;;;2.83;;
13731;SDS011;6937;56.096;12.664;2022-07-23T03:40:37;5.85;;;2.28;;
13731;SDS011;6937;56.096;12.664;2022-07-23T03:43:02;3.33;;;2.50;;
13731;SDS011;6937;56.096;12.664;2022-07-23T03:45:28;4.45;;;2.20;;
13731;SDS011;6937;56.096;12.664;2022-07-23T03:47:54;4.63;;;2.47;;
13731;SDS011;6937;56.096;12.664;2022-07-23T03:50:19;3.60;;;2.50;;
13731;SDS011;6937;56.096;12.664;2022-07-23T03:52:45;3.97;;;2.60;;
13731;SDS011;6937;56.096;12.664;2022-07-23T03:55:10;5.35;;;2.53;;
13731;SDS011;6937;56.096;12.664;2022-07-23T03:57:36;3.20;;;2.33;;
13731;SDS011;6937;56.096;12.664;2022-07-23T04:00:03;4.22;;;2.53;;
13731;SDS011;6937;56.096;12.664;2022-07-23T04:02:30;3.47;;;2.20;;
13731;SDS011;6937;56.096;12.664;2022-07-23T04:04:56;3.67;;;2.17;;
13731;SDS011;6937;56.096;12.664;2022-07-23T04:07:21;5.93;;;2.25;;
13731;SDS011;6937;56.096;12.664;2022-07-23T04:09:47;3.97;;;2.28;;
13731;SDS011;6937;56.096;12.664;2022-07-23T04:12:12;3.03;;;2.08;;
13731;SDS011;6937;56.096;12.664;2022-07-23T04:14:38;4.43;;;2.30;;
13731;SDS011;6937;56.096;12.664;2022-07-23T04:17:03;2.80;;;2.00;;
13731;SDS011;6937;56.096;12.664;2022-07-23T04:19:29;3.92;;;2.83;;
13731;SDS011;6937;56.096;12.664;2022-07-23T04:21:55;3.90;;;2.53;;
13731;SDS011;6937;56.096;12.664;2022-07-23T04:24:21;4.60;;;2.35;;
13731;SDS011;6937;56.096;12.664;2022-07-23T04:26:46;4.85;;;2.47;;
13731;SDS011;6937;56.096;12.664;2022-07-23T04:29:11;2.67;;;2.30;;
13731;SDS011;6937;56.096;12.664;2022-07-23T04:31:37;3.92;;;2.25;;
13731;SDS011;6937;56.096;12.664;2022-07-23T04:34:02;6.00;;;2.67;;
13731;SDS011;6937;56.096;12.664;2022-07-23T04:36:28;5.35;;;2.63;;
13731;SDS011;6937;56.096;12.664;2022-07-23T04:38:53;6.88;;;3.40;;
13731;SDS011;6937;56.096;12.664;2022-07-23T04:41:19;6.10;;;3.00;;
13731;SDS011;6937;56.096;12.664;2022-07-23T04:43:45;4.45;;;2.70;;
13731;SDS011;6937;56.096;12.664;2022-07-23T04:46:10;7.72;;;4.20;;
13731;SDS011;6937;56.096;12.664;2022-07-23T04:48:36;4.25;;;3.10;;
13731;SDS011;6937;56.096;12.664;2022-07-23T04:51:01;5.45;;;3.30;;
13731;SDS011;6937;56.096;12.664;2022-07-23T04:53:28;4.97;;;3.42;;
13731;SDS011;6937;56.096;12.664;2022-07-23T04:55:54;5.18;;;3.05;;
13731;SDS011;6937;56.096;12.664;2022-07-23T04:58:19;6.25;;;3.03;;
13731;SDS011;6937;56.096;12.664;2022-07-23T05:00:45;5.13;;;3.13;;
13731;SDS011;6937;56.096;12.664;2022-07-23T05:03:11;4.97;;;3.10;;
13731;SDS011;6937;56.096;12.664;2022-07-23T05:05:36;4.82;;;2.92;;
13731;SDS011;6937;56.096;12.664;2022-07-23T05:08:01;4.28;;;3.20;;
13731;SDS011;6937;56.096;12.664;2022-07-23T05:10:27;7.55;;;3.53;;
13731;SDS011;6937;56.096;12.664;2022-07-23T05:12:52;6.35;;;3.70;;
13731;SDS011;6937;56.096;12.664;2022-07-23T05:15:18;9.35;;;3.72;;
13731;SDS011;6937;56.096;12.664;2022-07-23T05:17:43;6.03;;;3.60;;
13731;SDS011;6937;56.096;12.664;2022-07-23T05:20:09;6.63;;;3.80;;
13731;SDS011;6937;56.096;12.664;2022-07-23T05:22:34;5.32;;;3.42;;
13731;SDS011;6937;56.096;12.664;2022-07-23T05:25:00;6.32;;;3.60;;
13731;SDS011;6937;56.096;12.664;2022-07-23T05:27:25;6.05;;;3.97;;
13731;SDS011;6937;56.096;12.664;2022-07-23T05:29:50;7.35;;;4.10;;
13731;SDS011;6937;56.096;12.664;2022-07-23T05:32:16;7.22;;;3.85;;
13731;SDS011;6937;56.096;12.664;2022-07-23T05:34:41;6.78;;;3.85;;
13731;SDS011;6937;56.096;12.664;2022-07-23T05:37:07;6.60;;;3.80;;
13731;SDS011;6937;56.096;12.664;2022-07-23T05:39:32;6.00;;;3.97;;
13731;SDS011;6937;56.096;12.664;2022-07-23T05:41:57;5.22;;;4.20;;
13731;SDS011;6937;56.096;12.664;2022-07-23T05:44:23;6.93;;;4.65;;
13731;SDS011;6937;56.096;12.664;2022-07-23T05:46:48;6.35;;;3.85;;
13731;SDS011;6937;56.096;12.664;2022-07-23T05:49:14;5.47;;;3.70;;
13731;SDS011;6937;56.096;12.664;2022-07-23T05:51:39;4.63;;;3.30;;
13731;SDS011;6937;56.096;12.664;2022-07-23T05:54:05;5.45;;;3.58;;
13731;SDS011;6937;56.096;12.664;2022-07-23T05:56:30;5.55;;;3.90;;
13731;SDS011;6937;56.096;12.664;2022-07-23T05:58:55;6.00;;;3.78;;
13731;SDS011;6937;56.096;12.664;2022-07-23T06:01:21;4.90;;;3.75;;
13731;SDS011;6937;56.096;12.664;2022-07-23T06:03:46;6.03;;;3.47;;
13731;SDS011;6937;56.096;12.664;2022-07-23T06:06:11;5.82;;;3.85;;
13731;SDS011;6937;56.096;12.664;2022-07-23T06:08:37;4.78;;;3.45;;
13731;SDS011;6937;56.096;12.664;2022-07-23T06:11:02;4.80;;;3.25;;
13731;SDS011;6937;56.096;12.664;2022-07-23T06:13:28;6.03;;;3.90;;
13731;SDS011;6937;56.096;12.664;2022-07-23T06:15:53;5.80;;;3.70;;
13731;SDS011;6937;56.096;12.664;2022-07-23T06:18:18;4.57;;;2.92;;
13731;SDS011;6937;56.096;12.664;2022-07-23T06:20:44;5.90;;;3.33;;
13731;SDS011;6937;56.096;12.664;2022-07-23T06:23:09;5.07;;;3.00;;
13731;SDS011;6937;56.096;12.664;2022-07-23T06:25:35;6.07;;;3.83;;
13731;SDS011;6937;56.096;12.664;2022-07-23T06:28:00;6.13;;;3.75;;
13731;SDS011;6937;56.096;12.664;2022-07-23T06:30:26;5.03;;;4.15;;
13731;SDS011;6937;56.096;12.664;2022-07-23T06:32:51;5.63;;;4.03;;
13731;SDS011;6937;56.096;12.664;2022-07-23T06:35:16;6.00;;;3.30;;
13731;SDS011;6937;56.096;12.664;2022-07-23T06:37:42;4.22;;;2.97;;
13731;SDS011;6937;56.096;12.664;2022-07-23T06:40:08;5.55;;;3.30;;
13731;SDS011;6937;56.096;12.664;2022-07-23T06:42:33;4.90;;;3.13;;
13731;SDS011;6937;56.096;12.664;2022-07-23T06:45:02;3.67;;;3.25;;
13731;SDS011;6937;56.096;12.664;2022-07-23T06:47:28;3.42;;;2.90;;
13731;SDS011;6937;56.096;12.664;2022-07-23T06:49:54;3.20;;;2.60;;
13731;SDS011;6937;56.096;12.664;2022-07-23T06:52:19;4.28;;;2.03;;
13731;SDS011;6937;56.096;12.664;2022-07-23T06:54:44;2.55;;;1.90;;
13731;SDS011;6937;56.096;12.664;2022-07-23T06:57:10;1.80;;;1.10;;
13731;SDS011;6937;56.096;12.664;2022-07-23T06:59:35;1.63;;;1.50;;
13731;SDS011;6937;56.096;12.664;2022-07-23T07:02:05;2.15;;;1.40;;
13731;SDS011;6937;56.096;12.664;2022-07-23T07:04:31;2.75;;;1.58;;
13731;SDS011;6937;56.096;12.664;2022-07-23T07:06:57;3.85;;;1.42;;
13731;SDS011;6937;56.096;12.664;2022-07-23T07:09:22;1.30;;;1.20;;
13731;SDS011;6937;56.096;12.664;2022-07-23T07:11:47;2.05;;;1.20;;
13731;SDS011;6937;56.096;12.664;2022-07-23T07:14:13;1.73;;;1.20;;
13731;SDS011;6937;56.096;12.664;2022-07-23T07:16:38;1.20;;;1.10;;
13731;SDS011;6937;56.096;12.664;2022-07-23T07:19:03;1.05;;;1.00;;
13731;SDS011;6937;56.096;12.664;2022-07-23T07:21:29;1.63;;;1.10;;
13731;SDS011;6937;56.096;12.664;2022-07-23T07:23:54;0.80;;;0.80;;
13731;SDS011;6937;56.096;12.664;2022-07-23T07:26:20;1.95;;;0.85;;
13731;SDS011;6937;56.096;12.664;2022-07-23T07:28:45;2.15;;;0.90;;
13731;SDS011;6937;56.096;12.664;2022-07-23T07:31:11;1.02;;;0.85;;
13731;SDS011;6937;56.096;12.664;2022-07-23T07:33:36;0.75;;;0.70;;
13731;SDS011;6937;56.096;12.664;2022-07-23T07:36:01;1.17;;;0.77;;
13731;SDS011;6937;56.096;12.664;2022-07-23T07:38:28;0.75;;;0.70;;
13731;SDS011;6937;56.096;12.664;2022-07-23T07:40:53;0.80;;;0.80;;
13731;SDS011;6937;56.096;12.664;2022-07-23T07:43:18;1.25;;;0.73;;
13731;SDS011;6937;56.096;12.664;2022-07-23T07:45:44;0.85;;;0.68;;
13731;SDS011;6937;56.096;12.664;2022-07-23T07:48:09;1.02;;;0.70;;
13731;SDS011;6937;56.096;12.664;2022-07-23T07:50:34;0.85;;;0.80;;
13731;SDS011;6937;56.096;12.664;2022-07-23T07:53:00;0.80;;;0.80;;
13731;SDS011;6937;56.096;12.664;2022-07-23T07:55:25;1.67;;;0.90;;
13731;SDS011;6937;56.096;12.664;2022-07-23T07:57:52;1.30;;;1.08;;
13731;SDS011;6937;56.096;12.664;2022-07-23T08:00:17;1.13;;;0.80;;
13731;SDS011;6937;56.096;12.664;2022-07-23T08:02:44;1.38;;;0.70;;
13731;SDS011;6937;56.096;12.664;2022-07-23T08:05:11;1.20;;;0.70;;
13731;SDS011;6937;56.096;12.664;2022-07-23T08:07:37;1.73;;;0.90;;
13731;SDS011;6937;56.096;12.664;2022-07-23T08:10:04;1.33;;;1.17;;
13731;SDS011;6937;56.096;12.664;2022-07-23T08:12:40;1.20;;;0.82;;
13731;SDS011;6937;56.096;12.664;2022-07-23T08:15:07;0.77;;;0.77;;
13731;SDS011;6937;56.096;12.664;2022-07-23T08:17:33;1.02;;;0.90;;
13731;SDS011;6937;56.096;12.664;2022-07-23T08:19:58;0.55;;;0.55;;
13731;SDS011;6937;56.096;12.664;2022-07-23T08:22:23;1.00;;;0.90;;
13731;SDS011;6937;56.096;12.664;2022-07-23T08:24:49;0.70;;;0.70;;
13731;SDS011;6937;56.096;12.664;2022-07-23T08:27:14;0.95;;;0.80;;
13731;SDS011;6937;56.096;12.664;2022-07-23T08:29:40;0.98;;;0.88;;
13731;SDS011;6937;56.096;12.664;2022-07-23T08:32:05;1.00;;;1.00;;
13731;SDS011;6937;56.096;12.664;2022-07-23T08:34:30;0.90;;;0.90;;
13731;SDS011;6937;56.096;12.664;2022-07-23T08:36:56;1.08;;;1.00;;
13731;SDS011;6937;56.096;12.664;2022-07-23T08:39:21;0.77;;;0.77;;
13731;SDS011;6937;56.096;12.664;2022-07-23T08:41:47;0.93;;;0.90;;
13731;SDS011;6937;56.096;12.664;2022-07-23T08:44:13;0.95;;;0.95;;
13731;SDS011;6937;56.096;12.664;2022-07-23T08:46:41;0.90;;;0.90;;
13731;SDS011;6937;56.096;12.664;2022-07-23T08:49:07;1.20;;;1.10;;
13731;SDS011;6937;56.096;12.664;2022-07-23T08:51:33;2.10;;;1.00;;
13731;SDS011;6937;56.096;12.664;2022-07-23T08:53:59;0.80;;;0.80;;
13731;SDS011;6937;56.096;12.664;2022-07-23T08:56:25;1.00;;;0.82;;
13731;SDS011;6937;56.096;12.664;2022-07-23T08:58:53;1.10;;;1.10;;
13731;SDS011;6937;56.096;12.664;2022-07-23T09:01:19;2.10;;;1.10;;
13731;SDS011;6937;56.096;12.664;2022-07-23T09:03:45;1.25;;;1.10;;
13731;SDS011;6937;56.096;12.664;2022-07-23T09:06:10;1.20;;;1.08;;
13731;SDS011;6937;56.096;12.664;2022-07-23T09:11:06;1.00;;;0.90;;
13731;SDS011;6937;56.096;12.664;2022-07-23T09:13:39;1.00;;;0.90;;
13731;SDS011;6937;56.096;12.664;2022-07-23T09:18:47;1.20;;;1.08;;
13731;SDS011;6937;56.096;12.664;2022-07-23T09:31:30;1.25;;;1.15;;
13731;SDS011;6937;56.096;12.664;2022-07-23T09:34:19;0.90;;;0.90;;
13731;SDS011;6937;56.096;12.664;2022-07-23T09:36:46;1.60;;;1.10;;
13731;SDS011;6937;56.096;12.664;2022-07-23T09:39:13;1.90;;;1.13;;
13731;SDS011;6937;56.096;12.664;2022-07-23T09:41:41;2.55;;;1.23;;
13731;SDS011;6937;56.096;12.664;2022-07-23T09:44:18;1.15;;;1.00;;
13731;SDS011;6937;56.096;12.664;2022-07-23T09:46:45;0.90;;;0.90;;
13731;SDS011;6937;56.096;12.664;2022-07-23T09:49:13;1.17;;;0.98;;
13731;SDS011;6937;56.096;12.664;2022-07-23T09:51:43;1.00;;;1.00;;
13731;SDS011;6937;56.096;12.664;2022-07-23T09:54:21;1.10;;;1.00;;
13731;SDS011;6937;56.096;12.664;2022-07-23T09:56:50;1.40;;;1.00;;
13731;SDS011;6937;56.096;12.664;2022-07-23T09:59:17;1.08;;;0.90;;
13731;SDS011;6937;56.096;12.664;2022-07-23T10:01:44;0.80;;;0.80;;
13731;SDS011;6937;56.096;12.664;2022-07-23T10:04:10;1.10;;;1.00;;
13731;SDS011;6937;56.096;12.664;2022-07-23T10:06:38;0.70;;;0.70;;
13731;SDS011;6937;56.096;12.664;2022-07-23T10:09:04;1.13;;;1.00;;
13731;SDS011;6937;56.096;12.664;2022-07-23T10:11:30;1.00;;;0.90;;
13731;SDS011;6937;56.096;12.664;2022-07-23T10:13:58;0.90;;;0.90;;
13731;SDS011;6937;56.096;12.664;2022-07-23T10:16:25;0.88;;;0.88;;
13731;SDS011;6937;56.096;12.664;2022-07-23T10:18:51;1.00;;;1.00;;
13731;SDS011;6937;56.096;12.664;2022-07-23T10:21:21;1.33;;;1.00;;
13731;SDS011;6937;56.096;12.664;2022-07-23T10:29:11;1.67;;;1.17;;
13731;SDS011;6937;56.096;12.664;2022-07-23T10:32:14;1.48;;;0.80;;
13731;SDS011;6937;56.096;12.664;2022-07-23T10:35:13;0.70;;;0.70;;
13731;SDS011;6937;56.096;12.664;2022-07-23T10:37:51;0.50;;;0.50;;
13731;SDS011;6937;56.096;12.664;2022-07-23T10:40:22;0.65;;;0.65;;
13731;SDS011;6937;56.096;12.664;2022-07-23T10:42:49;1.17;;;0.70;;
13731;SDS011;6937;56.096;12.664;2022-07-23T10:45:25;0.65;;;0.40;;
13731;SDS011;6937;56.096;12.664;2022-07-23T10:47:51;0.40;;;0.40;;
13731;SDS011;6937;56.096;12.664;2022-07-23T10:53:08;0.85;;;0.40;;
13731;SDS011;6937;56.096;12.664;2022-07-23T10:55:43;0.40;;;0.40;;
13731;SDS011;6937;56.096;12.664;2022-07-23T10:58:11;0.40;;;0.40;;
13731;SDS011;6937;56.096;12.664;2022-07-23T11:00:42;0.45;;;0.40;;
13731;SDS011;6937;56.096;12.664;2022-07-23T11:03:27;0.60;;;0.60;;
13731;SDS011;6937;56.096;12.664;2022-07-23T11:05:55;0.38;;;0.38;;
13731;SDS011;6937;56.096;12.664;2022-07-23T11:08:20;0.77;;;0.43;;
13731;SDS011;6937;56.096;12.664;2022-07-23T11:13:47;0.40;;;0.40;;
13731;SDS011;6937;56.096;12.664;2022-07-23T11:23:58;1.67;;;1.13;;
13731;SDS011;6937;56.096;12.664;2022-07-23T11:34:46;2.70;;;2.45;;
13731;SDS011;6937;56.096;12.664;2022-07-23T11:37:27;4.55;;;3.17;;
13731;SDS011;6937;56.096;12.664;2022-07-23T11:40:00;5.20;;;3.28;;
13731;SDS011;6937;56.096;12.664;2022-07-23T11:42:27;5.20;;;3.60;;
13731;SDS011;6937;56.096;12.664;2022-07-23T11:44:53;5.00;;;4.15;;
13731;SDS011;6937;56.096;12.664;2022-07-23T11:47:22;7.68;;;4.78;;
13731;SDS011;6937;56.096;12.664;2022-07-23T11:49:55;5.50;;;4.85;;
13731;SDS011;6937;56.096;12.664;2022-07-23T11:52:23;6.88;;;5.30;;
13731;SDS011;6937;56.096;12.664;2022-07-23T11:54:55;7.93;;;6.28;;
13731;SDS011;6937;56.096;12.664;2022-07-23T11:57:28;6.88;;;5.93;;
13731;SDS011;6937;56.096;12.664;2022-07-23T12:00:01;8.77;;;6.30;;
13731;SDS011;6937;56.096;12.664;2022-07-23T12:02:38;8.65;;;6.25;;
13731;SDS011;6937;56.096;12.664;2022-07-23T12:05:08;9.75;;;6.50;;
13731;SDS011;6937;56.096;12.664;2022-07-23T12:07:37;7.10;;;6.45;;
13731;SDS011;6937;56.096;12.664;2022-07-23T12:10:15;9.85;;;7.82;;
13731;SDS011;6937;56.096;12.664;2022-07-23T12:12:43;12.20;;;8.85;;
13731;SDS011;6937;56.096;12.664;2022-07-23T12:15:17;16.77;;;9.23;;
13731;SDS011;6937;56.096;12.664;2022-07-23T12:17:47;13.82;;;8.65;;
13731;SDS011;6937;56.096;12.664;2022-07-23T12:20:15;15.75;;;8.40;;
13731;SDS011;6937;56.096;12.664;2022-07-23T12:22:43;12.88;;;7.38;;
13731;SDS011;6937;56.096;12.664;2022-07-23T12:25:11;10.27;;;6.95;;
13731;SDS011;6937;56.096;12.664;2022-07-23T12:27:37;8.75;;;6.95;;
13731;SDS011;6937;56.096;12.664;2022-07-23T12:32:45;9.30;;;7.10;;
13731;SDS011;6937;56.096;12.664;2022-07-23T12:35:12;8.82;;;7.20;;
13731;SDS011;6937;56.096;12.664;2022-07-23T12:37:39;9.25;;;8.18;;
13731;SDS011;6937;56.096;12.664;2022-07-23T12:40:18;11.27;;;8.98;;
13731;SDS011;6937;56.096;12.664;2022-07-23T12:42:47;10.43;;;8.93;;
13731;SDS011;6937;56.096;12.664;2022-07-23T12:45:13;10.70;;;8.85;;
13731;SDS011;6937;56.096;12.664;2022-07-23T12:47:56;8.73;;;7.78;;
13731;SDS011;6937;56.096;12.664;2022-07-23T12:53:22;10.10;;;8.30;;
13731;SDS011;6937;56.096;12.664;2022-07-23T12:56:04;11.57;;;9.00;;
13731;SDS011;6937;56.096;12.664;2022-07-23T12:58:43;9.93;;;7.53;;
13731;SDS011;6937;56.096;12.664;2022-07-23T13:01:09;8.63;;;7.38;;
13731;SDS011;6937;56.096;12.664;2022-07-23T13:03:36;11.60;;;8.18;;
13731;SDS011;6937;56.096;12.664;2022-07-23T13:06:05;11.27;;;8.55;;
13731;SDS011;6937;56.096;12.664;2022-07-23T13:08:34;11.80;;;8.88;;
13731;SDS011;6937;56.096;12.664;2022-07-23T13:11:00;8.70;;;7.72;;
13731;SDS011;6937;56.096;12.664;2022-07-23T13:13:28;10.82;;;7.75;;
13731;SDS011;6937;56.096;12.664;2022-07-23T13:15:55;13.63;;;8.10;;
13731;SDS011;6937;56.096;12.664;2022-07-23T13:18:21;8.65;;;6.90;;
13731;SDS011;6937;56.096;12.664;2022-07-23T13:20:47;11.77;;;6.78;;
13731;SDS011;6937;56.096;12.664;2022-07-23T13:23:13;8.15;;;6.00;;
13731;SDS011;6937;56.096;12.664;2022-07-23T13:25:39;6.45;;;5.50;;
13731;SDS011;6937;56.096;12.664;2022-07-23T13:28:05;7.40;;;5.70;;
13731;SDS011;6937;56.096;12.664;2022-07-23T13:30:31;7.25;;;5.43;;
13731;SDS011;6937;56.096;12.664;2022-07-23T13:32:56;6.68;;;5.75;;
13731;SDS011;6937;56.096;12.664;2022-07-23T13:35:22;7.05;;;5.30;;
13731;SDS011;6937;56.096;12.664;2022-07-23T13:37:48;7.25;;;5.70;;
13731;SDS011;6937;56.096;12.664;2022-07-23T13:40:13;6.63;;;5.30;;
13731;SDS011;6937;56.096;12.664;2022-07-23T13:42:39;6.57;;;4.85;;
13731;SDS011;6937;56.096;12.664;2022-07-23T13:45:05;5.25;;;3.97;;
13731;SDS011;6937;56.096;12.664;2022-07-23T13:47:31;5.50;;;4.50;;
13731;SDS011;6937;56.096;12.664;2022-07-23T13:49:56;5.75;;;4.00;;
13731;SDS011;6937;56.096;12.664;2022-07-23T13:52:22;3.33;;;2.70;;
13731;SDS011;6937;56.096;12.664;2022-07-23T13:54:47;3.35;;;2.83;;
13731;SDS011;6937;56.096;12.664;2022-07-23T13:57:13;2.97;;;2.42;;
13731;SDS011;6937;56.096;12.664;2022-07-23T13:59:38;2.60;;;2.40;;
13731;SDS011;6937;56.096;12.664;2022-07-23T14:02:04;2.40;;;2.20;;
13731;SDS011;6937;56.096;12.664;2022-07-23T14:04:29;2.28;;;2.05;;
13731;SDS011;6937;56.096;12.664;2022-07-23T14:06:55;2.50;;;2.30;;
13731;SDS011;6937;56.096;12.664;2022-07-23T14:09:20;2.50;;;2.30;;
13731;SDS011;6937;56.096;12.664;2022-07-23T14:11:47;3.15;;;2.30;;
13731;SDS011;6937;56.096;12.664;2022-07-23T14:14:12;3.13;;;2.53;;
13731;SDS011;6937;56.096;12.664;2022-07-23T14:16:37;3.85;;;2.80;;
13731;SDS011;6937;56.096;12.664;2022-07-23T14:19:03;3.55;;;2.53;;
13731;SDS011;6937;56.096;12.664;2022-07-23T14:21:28;4.63;;;2.60;;
13731;SDS011;6937;56.096;12.664;2022-07-23T14:23:53;3.22;;;2.50;;
13731;SDS011;6937;56.096;12.664;2022-07-23T14:26:19;5.45;;;3.33;;
13731;SDS011;6937;56.096;12.664;2022-07-23T14:28:44;7.57;;;3.78;;
13731;SDS011;6937;56.096;12.664;2022-07-23T14:31:10;5.43;;;3.40;;
13731;SDS011;6937;56.096;12.664;2022-07-23T14:33:35;4.47;;;2.90;;
13731;SDS011;6937;56.096;12.664;2022-07-23T14:36:01;8.18;;;3.50;;
13731;SDS011;6937;56.096;12.664;2022-07-23T14:38:27;6.85;;;3.17;;
13731;SDS011;6937;56.096;12.664;2022-07-23T14:40:52;6.13;;;3.13;;
13731;SDS011;6937;56.096;12.664;2022-07-23T14:43:18;4.60;;;3.08;;
13731;SDS011;6937;56.096;12.664;2022-07-23T14:45:43;4.95;;;3.30;;
13731;SDS011;6937;56.096;12.664;2022-07-23T14:48:09;6.47;;;3.30;;
13731;SDS011;6937;56.096;12.664;2022-07-23T14:50:35;4.40;;;3.00;;
13731;SDS011;6937;56.096;12.664;2022-07-23T14:53:00;3.67;;;2.72;;
13731;SDS011;6937;56.096;12.664;2022-07-23T14:55:25;5.25;;;2.97;;
13731;SDS011;6937;56.096;12.664;2022-07-23T14:57:51;6.70;;;3.08;;
13731;SDS011;6937;56.096;12.664;2022-07-23T15:00:16;5.53;;;3.00;;
13731;SDS011;6937;56.096;12.664;2022-07-23T15:02:42;3.45;;;3.10;;
13731;SDS011;6937;56.096;12.664;2022-07-23T15:05:07;5.00;;;3.45;;
13731;SDS011;6937;56.096;12.664;2022-07-23T15:07:33;4.47;;;2.80;;
13731;SDS011;6937;56.096;12.664;2022-07-23T15:09:58;5.03;;;2.92;;
13731;SDS011;6937;56.096;12.664;2022-07-23T15:12:24;4.88;;;3.25;;
13731;SDS011;6937;56.096;12.664;2022-07-23T15:14:54;4.68;;;3.03;;
13731;SDS011;6937;56.096;12.664;2022-07-23T15:17:20;6.78;;;3.80;;
13731;SDS011;6937;56.096;12.664;2022-07-23T15:19:46;5.85;;;3.60;;
13731;SDS011;6937;56.096;12.664;2022-07-23T15:22:11;4.18;;;3.22;;
13731;SDS011;6937;56.096;12.664;2022-07-23T15:24:37;3.67;;;3.38;;
13731;SDS011;6937;56.096;12.664;2022-07-23T15:27:02;4.75;;;3.22;;
13731;SDS011;6937;56.096;12.664;2022-07-23T15:29:28;5.88;;;2.97;;
13731;SDS011;6937;56.096;12.664;2022-07-23T15:31:53;4.13;;;3.40;;
13731;SDS011;6937;56.096;12.664;2022-07-23T15:34:18;3.63;;;3.22;;